THA482 YPPH-VTBS
Flight info
| Callsign | THA482 |
|---|---|
| Flight time | N/A |
| Altitude | 38000 |
| Route | AVNEX5/03 AVNEX DCT POKIP N752 UPNOT/N0486F400 N752 PLB G579 PARDI DCT PU B469 VPK M751 VKB M644 ALUMO Y12 DOLNI |
| Aircraft | A359/H-SDE2E3GHIJ3J4J5LM1ORWXY/LB1D1 |
Departure
| Time | 2026-05-04 06:48 |
|---|---|
| Airport | Perth International Airport (YPPH) |
Arrival
| Time | N/A |
|---|---|
| Airport | Suvarnabhumi Airport (VTBS) |
| Time | Latitude | Longitude | Altitude | Speed | Heading |
|---|---|---|---|---|---|
| 2026-05-04 06:25 | -31.94675 | 115.97002 | 79 ft | 0 kts | 101° |
| 2026-05-04 06:34 | -31.94674 | 115.96999 | 79 ft | 2 kts | 102° |
| 2026-05-04 06:34 | -31.94671 | 115.96981 | 79 ft | 2 kts | 107° |
| 2026-05-04 06:35 | -31.94664 | 115.96966 | 78 ft | 2 kts | 138° |
| 2026-05-04 06:36 | -31.94628 | 115.96955 | 78 ft | 0 kts | 194° |
| 2026-05-04 06:40 | -31.94676 | 115.96941 | 78 ft | 5 kts | 192° |
| 2026-05-04 06:40 | -31.94718 | 115.96931 | 78 ft | 6 kts | 192° |
| 2026-05-04 06:40 | -31.94763 | 115.96912 | 79 ft | 6 kts | 208° |
| 2026-05-04 06:40 | -31.94786 | 115.96863 | 79 ft | 7 kts | 262° |
| 2026-05-04 06:41 | -31.94772 | 115.96792 | 78 ft | 10 kts | 283° |
| 2026-05-04 06:41 | -31.94761 | 115.96703 | 78 ft | 11 kts | 261° |
| 2026-05-04 06:41 | -31.94823 | 115.96641 | 79 ft | 12 kts | 192° |
| 2026-05-04 06:41 | -31.94915 | 115.96614 | 78 ft | 14 kts | 193° |
| 2026-05-04 06:42 | -31.95018 | 115.96585 | 79 ft | 15 kts | 193° |
| 2026-05-04 06:42 | -31.95130 | 115.96553 | 79 ft | 17 kts | 194° |
| 2026-05-04 06:42 | -31.95255 | 115.96517 | 79 ft | 19 kts | 193° |
| 2026-05-04 06:44 | -31.95906 | 115.96194 | 85 ft | 0 kts | 284° |
| 2026-05-04 06:45 | -31.95902 | 115.96176 | 85 ft | 8 kts | 285° |
| 2026-05-04 06:45 | -31.95877 | 115.96066 | 82 ft | 17 kts | 283° |
| 2026-05-04 06:45 | -31.95798 | 115.95996 | 82 ft | 15 kts | 7° |
| 2026-05-04 06:46 | -31.95764 | 115.96006 | 82 ft | 1 kts | 16° |
| 2026-05-04 06:46 | -31.95643 | 115.96044 | 82 ft | 51 kts | 13° |
| 2026-05-04 06:46 | -31.95052 | 115.96214 | 77 ft | 120 kts | 15° |
| 2026-05-04 06:46 | -31.94050 | 115.96505 | 190 ft | 164 kts | 15° |
| 2026-05-04 06:48 | -31.86075 | 115.95904 | 3642 ft | 240 kts | 286° |
| 2026-05-04 06:48 | -31.85789 | 115.93916 | 4137 ft | 256 kts | 280° |
| 2026-05-04 06:49 | -31.85546 | 115.91769 | 4690 ft | 269 kts | 279° |
| 2026-05-04 06:50 | -31.83647 | 115.76332 | 10569 ft | 279 kts | 280° |
| 2026-05-04 06:51 | -31.83392 | 115.74025 | 11019 ft | 294 kts | 274° |
| 2026-05-04 06:51 | -31.83476 | 115.71545 | 11401 ft | 313 kts | 263° |
| 2026-05-04 06:51 | -31.83989 | 115.69018 | 11758 ft | 331 kts | 255° |
| 2026-05-04 06:51 | -31.84707 | 115.66346 | 12100 ft | 347 kts | 253° |
| 2026-05-04 06:52 | -31.85475 | 115.63589 | 12408 ft | 363 kts | 253° |
| 2026-05-04 06:52 | -31.86267 | 115.60729 | 12814 ft | 375 kts | 253° |
| 2026-05-04 06:52 | -31.87069 | 115.57797 | 13457 ft | 379 kts | 254° |
| 2026-05-04 06:52 | -31.87873 | 115.54836 | 14168 ft | 381 kts | 254° |
| 2026-05-04 06:53 | -31.88677 | 115.51858 | 14853 ft | 383 kts | 254° |
| 2026-05-04 06:53 | -31.89301 | 115.48830 | 15473 ft | 384 kts | 266° |
| 2026-05-04 06:53 | -31.89156 | 115.45702 | 16088 ft | 384 kts | 282° |
| 2026-05-04 06:53 | -31.88226 | 115.42790 | 16696 ft | 387 kts | 298° |
| 2026-05-04 06:54 | -31.86560 | 115.40282 | 17286 ft | 393 kts | 315° |
| 2026-05-04 06:54 | -31.84318 | 115.38480 | 17843 ft | 402 kts | 331° |
| 2026-05-04 06:54 | -31.81678 | 115.37357 | 18430 ft | 407 kts | 338° |
| 2026-05-04 06:54 | -31.78943 | 115.36337 | 19001 ft | 410 kts | 338° |
| 2026-05-04 06:55 | -31.76223 | 115.35377 | 19515 ft | 415 kts | 341° |
| 2026-05-04 06:55 | -31.73389 | 115.34772 | 20012 ft | 423 kts | 349° |
| 2026-05-04 06:55 | -31.70432 | 115.34611 | 20523 ft | 431 kts | 356° |
| 2026-05-04 06:55 | -31.67436 | 115.35053 | 21009 ft | 442 kts | 7° |
| 2026-05-04 06:56 | -31.64440 | 115.36099 | 21496 ft | 451 kts | 15° |
| 2026-05-04 06:57 | -31.44259 | 115.48215 | 24507 ft | 480 kts | 21° |
| 2026-05-04 06:58 | -31.41298 | 115.50007 | 24891 ft | 483 kts | 21° |
| 2026-05-04 06:58 | -31.38328 | 115.51802 | 25267 ft | 486 kts | 21° |
| 2026-05-04 06:58 | -31.35333 | 115.53610 | 25636 ft | 488 kts | 21° |
| 2026-05-04 06:58 | -31.32291 | 115.55444 | 25992 ft | 491 kts | 21° |
| 2026-05-04 06:59 | -31.29263 | 115.57269 | 26325 ft | 494 kts | 21° |
| 2026-05-04 06:59 | -31.26210 | 115.59109 | 26649 ft | 497 kts | 21° |
| 2026-05-04 06:59 | -31.23151 | 115.60952 | 26969 ft | 499 kts | 21° |
| 2026-05-04 06:59 | -31.20082 | 115.62801 | 27268 ft | 502 kts | 21° |
| 2026-05-04 07:01 | -30.98223 | 115.75959 | 29629 ft | 506 kts | 19° |
| 2026-05-04 07:01 | -30.95123 | 115.77811 | 29992 ft | 505 kts | 19° |
| 2026-05-04 07:02 | -30.91984 | 115.79680 | 30346 ft | 503 kts | 17° |
| 2026-05-04 07:02 | -30.88788 | 115.81126 | 30687 ft | 488 kts | 6° |
| 2026-05-04 07:02 | -30.85512 | 115.81818 | 31044 ft | 472 kts | 355° |
| 2026-05-04 07:02 | -30.82318 | 115.81780 | 31388 ft | 456 kts | 344° |
| 2026-05-04 07:03 | -30.79277 | 115.81094 | 31715 ft | 443 kts | 334° |
| 2026-05-04 07:03 | -30.76450 | 115.79833 | 32024 ft | 431 kts | 326° |
| 2026-05-04 07:03 | -30.73891 | 115.78072 | 32164 ft | 425 kts | 317° |
| 2026-05-04 07:03 | -30.71640 | 115.75906 | 32296 ft | 422 kts | 311° |
| 2026-05-04 07:04 | -30.69470 | 115.73622 | 32515 ft | 423 kts | 311° |
| 2026-05-04 07:04 | -30.67294 | 115.71314 | 32797 ft | 422 kts | 311° |
| 2026-05-04 07:04 | -30.65147 | 115.69036 | 33106 ft | 421 kts | 311° |
| 2026-05-04 07:04 | -30.63008 | 115.66771 | 33412 ft | 420 kts | 311° |
| 2026-05-04 07:05 | -30.60837 | 115.64468 | 33697 ft | 419 kts | 319° |
| 2026-05-04 07:05 | -30.58694 | 115.62130 | 33816 ft | 424 kts | 317° |
| 2026-05-04 07:05 | -30.56504 | 115.59817 | 33933 ft | 428 kts | 317° |
| 2026-05-04 07:05 | -30.54299 | 115.57513 | 34050 ft | 432 kts | 317° |
| 2026-05-04 07:06 | -30.49803 | 115.52809 | 34278 ft | 441 kts | 317° |
| 2026-05-04 07:06 | -30.47524 | 115.50418 | 34389 ft | 445 kts | 317° |
| 2026-05-04 07:06 | -30.45207 | 115.47985 | 34500 ft | 449 kts | 317° |
| 2026-05-04 07:07 | -30.42919 | 115.45583 | 34606 ft | 453 kts | 317° |
| 2026-05-04 07:08 | -30.26174 | 115.27996 | 35378 ft | 474 kts | 318° |
| 2026-05-04 07:09 | -30.23764 | 115.25467 | 35593 ft | 473 kts | 318° |
| 2026-05-04 07:09 | -30.21324 | 115.22913 | 35828 ft | 473 kts | 318° |
| 2026-05-04 07:09 | -30.18909 | 115.20387 | 36054 ft | 472 kts | 318° |
| 2026-05-04 07:09 | -30.16463 | 115.17834 | 36265 ft | 472 kts | 318° |
| 2026-05-04 07:10 | -30.14023 | 115.15288 | 36433 ft | 472 kts | 318° |
| 2026-05-04 07:10 | -30.11590 | 115.12753 | 36575 ft | 473 kts | 318° |
| 2026-05-04 07:12 | -29.94408 | 114.94898 | 37469 ft | 479 kts | 318° |
| 2026-05-04 07:12 | -29.91919 | 114.92319 | 37584 ft | 480 kts | 318° |
| 2026-05-04 07:12 | -29.89448 | 114.89761 | 37695 ft | 480 kts | 318° |
| 2026-05-04 07:12 | -29.86961 | 114.87200 | 37803 ft | 481 kts | 318° |
| 2026-05-04 07:13 | -29.84459 | 114.84630 | 37908 ft | 481 kts | 318° |
| 2026-05-04 07:13 | -29.81952 | 114.82052 | 38010 ft | 482 kts | 318° |
| 2026-05-04 07:13 | -29.79487 | 114.79515 | 38028 ft | 483 kts | 318° |
| 2026-05-04 07:14 | -29.66975 | 114.66631 | 38037 ft | 483 kts | 318° |
| 2026-05-04 07:15 | -29.61992 | 114.61509 | 38037 ft | 483 kts | 318° |
| 2026-05-04 07:15 | -29.56984 | 114.56368 | 38037 ft | 483 kts | 318° |
| 2026-05-04 07:16 | -29.51962 | 114.51218 | 38037 ft | 483 kts | 318° |
| 2026-05-04 07:16 | -29.46964 | 114.46101 | 38037 ft | 483 kts | 318° |
| 2026-05-04 07:17 | -29.41967 | 114.40991 | 38037 ft | 483 kts | 318° |
| 2026-05-04 07:17 | -29.36930 | 114.35847 | 38038 ft | 483 kts | 318° |
| 2026-05-04 07:18 | -29.31940 | 114.30737 | 38037 ft | 483 kts | 318° |
| 2026-05-04 07:18 | -29.26926 | 114.25607 | 38037 ft | 484 kts | 318° |
| 2026-05-04 07:19 | -29.21898 | 114.20487 | 38037 ft | 484 kts | 319° |
| 2026-05-04 07:19 | -29.16898 | 114.15410 | 38037 ft | 484 kts | 319° |
| 2026-05-04 07:20 | -29.12692 | 114.11144 | 38037 ft | 484 kts | 319° |
| 2026-05-04 07:20 | -29.06555 | 114.05610 | 38038 ft | 483 kts | 325° |
| 2026-05-04 07:22 | -28.86031 | 113.94521 | 38038 ft | 484 kts | 339° |
| 2026-05-04 07:22 | -28.82853 | 113.93168 | 38037 ft | 484 kts | 339° |
| 2026-05-04 07:23 | -28.79728 | 113.91833 | 38037 ft | 484 kts | 339° |